EDQM

Hof-Plauen Airport

Hof, Germany
METAR EDQM 181850Z 31001KT 9999 BCFG FEW015 M05/M06 Q1026
Observed Flight Rules
Dec-18 @ 18:50 UTC (2 hours ago) Visual Flight Rules
Wind Visibility Clouds Conditions
310° at 1 knots 10,000+ meters
  • Few at 1,500' AGL
  • Patches of
  • Fog
Temperatures Readings
Current -5°C / 23°F
Dewpoint -6°C / 21°F
Humidity 93%
Altimeter 30.3" Hg
Pressure 1026 hPa
Elevation 568
METAR EDQM 181850Z 31001KT 9999 BCFG FEW015 M05/M06 Q1026
Observed Flight Rules
Dec-18 @ 18:50 UTC
(2 hours ago)
VFR
Wind Visibility
310° at 1 knots 10,000+ meters
Clouds
  • Few at 1,500' AGL
Conditions
  • Patches of
  • Fog
Temperature Dewpoint
-5°C / 23°F -6°C / 21°F
Humidity Altimeter Pressure
93% 30.3" Hg 1026 hPa